Ordbend, California
Current Conditions -  °F | °C
As of 2:47 PM on Wednesday 22 Oct 2014 (Local Time) from KCIC Reporting Station
Broken Clouds Broken Clouds  
Wind Chill: 72°   Ceiling: 12000
Heat Index: 72°   Visibility: 40mi
Dew Point: 41°   Wind: 8mph
Humidity: 33%   Direction: 160°SSE
Pressure: 30.02"   Gusts: NA
Location:  39.6048°N, 122.032°W
Report Text: KCIC 222147Z 16007KT 40SM FEW070 BKN120 BKN200 22/05 A3002
Loading
Personal Weather Stations






























Interactive Weather Map
Tropical Storm Tracking
New forecast layout! Learn more

10-Day Weather Forecast

Advertisements
Track Severe Weather on mobile